Waite Hill, Ohio
Current Conditions -  °F | °C
As of 1:45 PM on Friday 24 Oct 2014 (Local Time) from KCGF Reporting Station
Broken Clouds Broken Clouds  
Wind Chill: 59°   Ceiling: 25000
Heat Index: 59°   Visibility: 15mi
Dew Point: 43°   Wind: 14mph
Humidity: 55%   Direction: 300°WNW
Pressure: 30.06"   Gusts: NA
Location:  41.6111°N, 81.3789°W
Report Text: KCGF 241745Z 30012KT 15SM BKN250 15/06 A3006
Loading
Personal Weather Stations






























Interactive Weather Map
Tropical Storm Tracking
New forecast layout! Learn more

10-Day Weather Forecast

Advertisements
Track Severe Weather on mobile